Sicily, Illinois
Current Conditions -  °F | °C
As of 8:55 AM on Tuesday 21 Oct 2014 (Local Time) from KTAZ Reporting Station
Clear Clear  
Wind Chill: 43°   Ceiling: Unl
Heat Index: 46°   Visibility: 7mi
Dew Point: 45°   Wind: 7mph
Humidity: 93%   Direction: 10°N
Pressure: 30.13"   Gusts: NA
Location:  39.5762°N, 89.554°W
Report Text: KTAZ 211355Z AUTO 01006KT 7SM CLR 08/07 A3013 RMK AO2
Loading
Personal Weather Stations






























Interactive Weather Map
Tropical Storm Tracking
New forecast layout! Learn more

10-Day Weather Forecast

Advertisements
Track Severe Weather on mobile